Flight Track Log - Related Links

Times and Time Zones

All times are in EDT time to prevent confusion due to time zone crossing. See the NKS313 flight status page for this flight to view local times or setup timezone preferences in your user account.

Time Position Orientation Groundspeed Altitude Reporting Facility
EDT Latitude Longitude Course Direction KTS MPH feet Rate Location/Type
Fri 07:29:37 PM 42.2260 -83.3500 33° Northeast 11 13  Level FlightAware ADS-B
Fri 07:30:08 PM 42.2260 -83.3510 270° West 24 28 250 Level FlightAware ADS-B
Fri 07:30:36 PM 42.2260 -83.3520 270° West 26 30 267 Level FlightAware ADS-B
Fri 07:31:04 PM 42.2260 -83.3540 270° West 25 29 284 Level FlightAware ADS-B
Fri 07:31:46 PM 42.2260 -83.3560 270° West 29 33 303 Level FlightAware ADS-B
Fri 07:32:13 PM 42.2240 -83.3570 200° South 31 36 337 Level FlightAware ADS-B
Fri 07:32:30 PM 42.2240 -83.3580 270° West 33 38 363 Level FlightAware ADS-B
Fri 07:32:41 PM 42.2230 -83.3580 180° South 34 39 382 Level FlightAware ADS-B
Fri 07:33:04 PM 42.2220 -83.3590 217° Southwest 15 17 395 Level FlightAware ADS-B
Fri 07:33:42 PM 42.2190 -83.3600 194° South 16 18 426 Level FlightAware ADS-B
Fri 07:33:59 PM 42.2180 -83.3620 236° Southwest 15 17 488 Level FlightAware ADS-B
Fri 07:34:38 PM 42.2190 -83.3650 294° West 16 18 523 Level FlightAware ADS-B
Fri 07:35:06 PM 42.2200 -83.3680 294° West 31 36 624 Level FlightAware ADS-B
Fri 07:35:28 PM 42.2210 -83.3670 37° Northeast 31 36 724 Level FlightAware ADS-B
Fri 07:35:46 PM 42.2220 -83.3670 360° North 18 21 829 Level FlightAware ADS-B
Fri 07:36:15 PM 42.2250 -83.3650 26° Northeast 24 28 940 Level FlightAware ADS-B
Fri 07:36:28 PM 42.2260 -83.3650 360° North 18 21 1,200 Level FlightAware ADS-B
Fri 07:36:41 PM 42.2260 -83.3660 270° West 18 21 1,370 Level FlightAware ADS-B
Fri 07:37:04 PM 42.2230 -83.3690 217° Southwest 70 81 1,595 Level FlightAware ADS-B
Fri 07:37:30 PM 42.2140 -83.3750 206° Southwest 145 167 2,250 Level FlightAware ADS-B
Fri 07:38:00 PM 42.1930 -83.4000 221° Southwest 152 175 2,100 2,897 Climbing FlightAware ADS-B
Fri 07:38:28 PM 42.1910 -83.4280 265° West 173 199 2,800 1,500 Climbing FlightAware ADS-B
Fri 07:38:56 PM 42.1900 -83.4610 268° West 199 229 3,500 1,696 Climbing FlightAware ADS-B
Fri 07:39:14 PM 42.1890 -83.4860 267° West 222 255 4,100 2,100 Climbing FlightAware ADS-B
Fri 07:39:36 PM 42.1950 -83.5150 286° West 244 281 4,900 2,842 Climbing FlightAware ADS-B
Fri 07:39:52 PM 42.2040 -83.5380 298° West 247 284 5,900 3,450 Climbing FlightAware ADS-B
Fri 07:40:16 PM 42.2190 -83.5700 302° West 253 291 7,200 3,000 Climbing FlightAware ADS-B
Fri 07:40:30 PM 42.2240 -83.5840 296° West 251 289 7,800 2,533 Climbing FlightAware ADS-B
Fri 07:41:01 PM 42.2340 -83.6190 291° West 249 287 9,100 2,491 Climbing FlightAware ADS-B
Fri 07:41:23 PM 42.2410 -83.6440 291° West 254 292 10,000 2,000 Climbing FlightAware ADS-B
Fri 07:42:10 PM 42.2760 -83.7460 295° West 322 371 11,400 2,024 Climbing FlightAware ADS-B
Fri 07:42:46 PM 42.2990 -83.8140 295° West 332 382 12,800 2,351 Climbing FlightAware ADS-B
Fri 07:43:24 PM 42.3230 -83.8840 295° West 340 391 14,300 2,341 Climbing FlightAware ADS-B
Fri 07:44:08 PM 42.3520 -83.9710 294° West 349 402 16,000 2,051 Climbing FlightAware ADS-B
Fri 07:44:43 PM 42.3730 -84.0330 295° West 358 412 17,000 1,747 Climbing FlightAware ADS-B
Fri 07:45:27 PM 42.3990 -84.1100 295° West 366 421 18,300 2,000 Climbing FlightAware ADS-B
Fri 07:46:07 PM 42.4280 -84.2200 290° West 375 432 19,800 2,169 Climbing FlightAware ADS-B
Fri 07:46:50 PM 42.4300 -84.3230 272° West 375 432 21,300 1,735 Climbing FlightAware ADS-B
Fri 07:47:30 PM 42.4330 -84.4150 273° West 385 443 22,200 1,357 Climbing FlightAware ADS-B
Fri 07:48:14 PM 42.4360 -84.5240 272° West 396 456 23,200 1,482 Climbing FlightAware ADS-B
Fri 07:48:55 PM 42.4390 -84.6240 272° West 398 458 24,300 1,403 Climbing FlightAware ADS-B
Fri 07:49:31 PM 42.4410 -84.7110 272° West 404 465 25,000 1,319 Climbing FlightAware ADS-B
Fri 07:50:26 PM 42.4440 -84.8500 272° West 411 473 26,300 1,347 Climbing FlightAware ADS-B
Fri 07:51:09 PM 42.4470 -84.9650 272° West 416 479 27,200 1,214 Climbing FlightAware ADS-B
Fri 07:51:50 PM 42.4490 -85.0740 271° West 422 486 28,000 1,229 Climbing FlightAware ADS-B
Fri 07:52:32 PM 42.4510 -85.1880 271° West 425 489 28,900 1,200 Climbing FlightAware ADS-B
Fri 07:53:15 PM 42.4530 -85.3010 271° West 430 495 29,700 857 Climbing FlightAware ADS-B
Fri 07:53:56 PM 42.4550 -85.3760 272° West 435 501 30,100 1,105 Climbing FlightAware ADS-B
Fri 07:54:31 PM 42.4570 -85.4830 271° West 428 493 31,100 1,714 Climbing FlightAware ADS-B
Fri 07:55:06 PM 42.4590 -85.5990 271° West 426 490 32,100 1,326 Climbing FlightAware ADS-B
Fri 07:55:57 PM 42.4610 -85.7320 271° West 426 490 33,000 1,143 Climbing FlightAware ADS-B
Fri 07:56:30 PM 42.4620 -85.8220 271° West 424 488 33,700 769 Climbing FlightAware ADS-B
Fri 07:57:15 PM 42.4640 -85.9410 271° West 423 487 34,000 214 Climbing FlightAware ADS-B
Fri 07:57:54 PM 42.4650 -86.0440 271° West 423 487 34,000 228 Level FlightAware ADS-B
Fri 07:58:34 PM 42.4600 -86.1500 266° West 421 484 34,300 675 Climbing FlightAware ADS-B
Fri 07:59:14 PM 42.4500 -86.2330 261° West 418 481 34,900 1,012 Climbing FlightAware ADS-B
Fri 07:59:57 PM 42.4370 -86.3400 261° West 416 479 35,700 725 Climbing FlightAware ADS-B
Fri 08:00:45 PM 42.4180 -86.4860 260° West 416 479 36,000 212 Climbing FlightAware ADS-B
Fri 08:01:22 PM 42.4060 -86.5820 260° West 415 478 36,000  Level FlightAware ADS-B
Fri 08:01:59 PM 42.3940 -86.6750 260° West 416 479 36,000  Level FlightAware ADS-B
Fri 08:02:41 PM 42.3810 -86.7780 260° West 415 478 36,000  Level FlightAware ADS-B
Fri 08:03:29 PM 42.3650 -86.8970 260° West 412 474 36,000  Level FlightAware ADS-B
Fri 08:04:14 PM 42.3510 -87.0030 260° West 411 473 36,000  Level FlightAware ADS-B
Fri 08:04:56 PM 42.3350 -87.1240 260° West 410 472 36,000  Level FlightAware ADS-B
Fri 08:05:36 PM 42.3220 -87.2260 260° West 412 474 36,000  Level FlightAware ADS-B
Fri 08:06:17 PM 42.3080 -87.3270 259° West 412 474 36,000  Level FlightAware ADS-B
Fri 08:06:56 PM 42.2960 -87.4130 259° West 412 474 36,000  Level FlightAware ADS-B
Fri 08:07:40 PM 42.2810 -87.5290 260° West 411 473 36,000  Level FlightAware ADS-B
Fri 08:08:22 PM 42.2650 -87.6420 259° West 410 472 36,000  Level FlightAware ADS-B
Fri 08:09:02 PM 42.2510 -87.7420 259° West 410 472 36,000  Level FlightAware ADS-B
Fri 08:09:43 PM 42.2370 -87.8390 259° West 410 472 36,000  Level FlightAware ADS-B
Fri 08:10:38 PM 42.2060 -87.9790 253° West 413 475 36,000  Level FlightAware ADS-B
Fri 08:11:40 PM 42.1660 -88.0820 242° Southwest 414 476 36,000  Level FlightAware ADS-B
Fri 08:12:22 PM 42.1110 -88.2150 241° Southwest 414 476 36,000  Level FlightAware ADS-B
Fri 08:13:06 PM 42.0690 -88.3140 240° Southwest 416 479 36,000  Level FlightAware ADS-B
Fri 08:13:39 PM 42.0380 -88.3870 240° Southwest 416 479 36,000  Level FlightAware ADS-B
Fri 08:14:23 PM 42.0060 -88.4650 241° Southwest 418 481 36,000  Level FlightAware ADS-B
Fri 08:15:09 PM 41.9520 -88.5920 240° Southwest 412 474 36,000  Level FlightAware ADS-B
Fri 08:15:45 PM 41.9180 -88.6720 240° Southwest 404 465 36,000  Level FlightAware ADS-B
Fri 08:16:27 PM 41.8790 -88.7640 240° Southwest 405 466 36,000  Level FlightAware ADS-B
Fri 08:17:10 PM 41.8390 -88.8560 240° Southwest 407 468 36,000  Level FlightAware ADS-B
Fri 08:17:45 PM 41.8130 -88.9160 240° Southwest 408 470 36,000  Level FlightAware ADS-B
Fri 08:18:27 PM 41.7730 -89.0090 240° Southwest 408 470 36,000  Level FlightAware ADS-B
Fri 08:19:08 PM 41.7290 -89.1130 240° Southwest 408 470 36,000  Level FlightAware ADS-B
Fri 08:19:53 PM 41.6860 -89.2120 240° Southwest 410 472 36,000  Level FlightAware ADS-B
Fri 08:20:35 PM 41.6450 -89.3060 240° Southwest 412 474 36,000  Level FlightAware ADS-B
Fri 08:21:11 PM 41.6110 -89.3840 240° Southwest 413 475 36,000  Level FlightAware ADS-B
Fri 08:21:55 PM 41.5700 -89.4770 240° Southwest 414 476 36,000  Level FlightAware ADS-B
Fri 08:22:33 PM 41.5330 -89.5620 240° Southwest 416 479 36,000  Level FlightAware ADS-B
Fri 08:23:21 PM 41.4730 -89.6640 232° Southwest 420 483 36,000  Level FlightAware ADS-B
Fri 08:24:02 PM 41.4240 -89.7430 230° Southwest 420 483 36,000  Level FlightAware ADS-B
Fri 08:24:47 PM 41.3670 -89.8360 231° Southwest 420 483 36,000  Level FlightAware ADS-B
Fri 08:25:27 PM 41.3190 -89.9140 231° Southwest 421 484 36,000  Level FlightAware ADS-B
Fri 08:26:11 PM 41.2650 -90.0020 231° Southwest 421 484 36,000  Level FlightAware ADS-B
Fri 08:26:51 PM 41.2150 -90.0830 231° Southwest 421 484 36,000  Level FlightAware ADS-B
Fri 08:27:31 PM 41.1650 -90.1620 230° Southwest 420 483 36,000  Level FlightAware ADS-B
Fri 08:28:11 PM 41.1200 -90.2340 230° Southwest 419 482 36,000  Level FlightAware ADS-B
Fri 08:28:58 PM 41.0680 -90.3180 231° Southwest 418 481 36,000  Level FlightAware ADS-B
Fri 08:29:42 PM 41.0080 -90.4130 230° Southwest 421 484 36,000  Level FlightAware ADS-B
Fri 08:30:26 PM 40.9510 -90.5030 230° Southwest 423 487 36,000  Level FlightAware ADS-B
Fri 08:31:08 PM 40.8970 -90.5900 231° Southwest 425 489 36,000  Level FlightAware ADS-B
Fri 08:31:51 PM 40.8520 -90.6610 230° Southwest 428 493 36,000  Level FlightAware ADS-B
Fri 08:32:31 PM 40.7910 -90.7570 230° Southwest 430 495 36,000  Level FlightAware ADS-B
Fri 08:33:17 PM 40.7320 -90.8490 230° Southwest 429 494 36,000  Level FlightAware ADS-B
Fri 08:33:57 PM 40.6820 -90.9290 231° Southwest 429 494 36,000  Level FlightAware ADS-B
Fri 08:34:40 PM 40.6270 -91.0150 230° Southwest 429 494 36,000  Level FlightAware ADS-B
Fri 08:35:21 PM 40.5790 -91.0890 230° Southwest 429 494 36,000  Level FlightAware ADS-B
Fri 08:36:03 PM 40.5220 -91.1780 230° Southwest 428 493 36,000  Level FlightAware ADS-B
Fri 08:36:43 PM 40.4710 -91.2570 230° Southwest 429 494 36,000  Level FlightAware ADS-B
Fri 08:37:28 PM 40.4120 -91.3480 230° Southwest 432 497 36,000  Level FlightAware ADS-B
Fri 08:38:09 PM 40.3570 -91.4320 229° Southwest 434 499 36,000  Level FlightAware ADS-B
Fri 08:38:45 PM 40.3120 -91.5020 230° Southwest 436 502 36,000  Level FlightAware ADS-B
Fri 08:39:39 PM 40.2440 -91.6060 229° Southwest 437 503 36,000  Level FlightAware ADS-B
Fri 08:40:22 PM 40.1860 -91.6940 229° Southwest 436 502 36,000  Level FlightAware ADS-B
Fri 08:40:59 PM 40.1340 -91.7730 229° Southwest 436 502 36,000  Level FlightAware ADS-B
Fri 08:42:00 PM 40.0560 -91.8920 229° Southwest 436 502 36,000  Level FlightAware ADS-B
Fri 08:42:41 PM 40.0030 -91.9730 230° Southwest 436 502 36,000  Level FlightAware ADS-B
Fri 08:43:21 PM 39.9580 -92.0410 229° Southwest 436 502 36,000  Level FlightAware ADS-B
Fri 08:43:53 PM 39.9070 -92.1180 229° Southwest 438 504 36,000  Level FlightAware ADS-B
Fri 08:44:44 PM 39.8500 -92.2040 229° Southwest 438 504 36,000  Level FlightAware ADS-B
Fri 08:45:21 PM 39.8080 -92.2670 229° Southwest 438 504 36,000  Level FlightAware ADS-B
Fri 08:46:22 PM 39.7130 -92.4090 229° Southwest 442 509 36,000  Level FlightAware ADS-B
Fri 08:46:54 PM 39.6670 -92.4780 229° Southwest 442 509 36,000  Level FlightAware ADS-B
Fri 08:47:44 PM 39.6080 -92.5620 228° Southwest 442 509 36,000 759 Level FlightAware ADS-B
Fri 08:48:21 PM 39.5580 -92.6390 230° Southwest 440 506 37,100 1,446 Climbing FlightAware ADS-B
Fri 08:49:07 PM 39.4880 -92.7430 229° Southwest 433 498 38,000 628 Climbing FlightAware ADS-B
Fri 08:49:47 PM 39.4350 -92.8210 229° Southwest 429 494 38,000  Level FlightAware ADS-B
Fri 08:50:31 PM 39.3770 -92.9060 229° Southwest 435 501 38,000  Level FlightAware ADS-B
Fri 08:51:12 PM 39.3230 -92.9860 229° Southwest 436 502 38,000  Level FlightAware ADS-B
Fri 08:51:51 PM 39.2890 -93.0350 228° Southwest 437 503 38,000  Level FlightAware ADS-B
Fri 08:52:29 PM 39.2310 -93.1200 229° Southwest 436 502 38,000  Level FlightAware ADS-B
Fri 08:53:11 PM 39.1620 -93.2190 228° Southwest 436 502 38,000  Level FlightAware ADS-B
Fri 08:53:53 PM 39.1060 -93.3010 229° Southwest 434 499 38,000  Level FlightAware ADS-B
Fri 08:54:37 PM 39.0480 -93.3860 229° Southwest 435 501 38,000  Level FlightAware ADS-B
Fri 08:55:17 PM 38.9970 -93.4580 228° Southwest 434 499 38,000  Level FlightAware ADS-B
Fri 08:56:00 PM 38.9420 -93.5380 229° Southwest 434 499 38,000  Level FlightAware ADS-B
Fri 08:56:43 PM 38.8790 -93.6290 228° Southwest 434 499 38,000  Level FlightAware ADS-B
Fri 08:57:25 PM 38.8233 -93.7086 228° Southwest 437 503 38,000  Level FlightAware ADS-B
Fri 08:58:11 PM 38.7612 -93.7972 228° Southwest 438 504 38,000  Level FlightAware ADS-B
Fri 08:58:51 PM 38.7080 -93.8730 228° Southwest 441 507 38,000  Level FlightAware ADS-B
Fri 08:59:18 PM 38.6695 -93.9278 228° Southwest 441 507 38,000  Level FlightAware ADS-B
Fri 08:59:49 PM 38.6277 -93.9872 228° Southwest 442 509 38,000  Level FlightAware ADS-B
Fri 09:00:49 PM 38.5460 -94.1031 228° Southwest 442 509 38,000  Level FlightAware ADS-B
Fri 09:01:31 PM 38.4880 -94.1850 228° Southwest 441 507 38,000  Level FlightAware ADS-B
Fri 09:01:40 PM 38.4755 -94.2028 228° Southwest 441 507 38,000  Level FlightAware ADS-B
Fri 09:02:11 PM 38.4340 -94.2610 228° Southwest 440 506 38,000  Level FlightAware ADS-B
Fri 09:02:22 PM 38.4191 -94.2818 228° Southwest 440 506 38,000  Level FlightAware ADS-B
Fri 09:02:53 PM 38.3758 -94.3426 228° Southwest 440 506 38,000  Level FlightAware ADS-B
Fri 09:03:35 PM 38.3190 -94.4210 227° Southwest 441 507 38,000  Level FlightAware ADS-B
Fri 09:04:19 PM 38.2500 -94.4940 220° Southwest 445 512 38,000  Level FlightAware ADS-B
Fri 09:04:59 PM 38.1780 -94.5490 211° Southwest 447 514 38,000  Level FlightAware ADS-B
Fri 09:05:41 PM 38.1150 -94.5890 207° Southwest 448 516 38,000  Level FlightAware ADS-B
Fri 09:06:18 PM 38.0350 -94.6410 207° Southwest 449 517 38,000  Level FlightAware ADS-B
Fri 09:06:41 PM 37.9892 -94.6701 207° Southwest 450 518 38,000  Level FlightAware ADS-B
Fri 09:07:43 PM 37.8760 -94.7420 207° Southwest 451 519 38,000  Level FlightAware ADS-B
Fri 09:08:19 PM 37.8090 -94.7850 207° Southwest 452 520 38,000  Level FlightAware ADS-B
Fri 09:08:59 PM 37.7350 -94.8320 207° Southwest 452 520 38,000  Level FlightAware ADS-B
Fri 09:09:35 PM 37.6670 -94.8750 207° Southwest 453 521 38,000  Level FlightAware ADS-B
Fri 09:10:18 PM 37.5900 -94.9240 207° Southwest 453 521 38,000  Level FlightAware ADS-B
Fri 09:11:02 PM 37.5100 -94.9740 206° Southwest 453 521 38,000  Level FlightAware ADS-B
Fri 09:11:44 PM 37.4240 -95.0290 207° Southwest 454 522 38,000  Level FlightAware ADS-B
Fri 09:12:22 PM 37.3530 -95.0730 206° Southwest 453 521 38,000  Level FlightAware ADS-B
Fri 09:13:00 PM 37.2820 -95.1180 207° Southwest 453 521 38,000  Level FlightAware ADS-B
Fri 09:13:42 PM 37.2020 -95.1640 205° Southwest 449 517 38,000  Level FlightAware ADS-B
Fri 09:14:28 PM 37.1150 -95.1720 184° South 449 517 38,000  Level FlightAware ADS-B
Fri 09:15:04 PM 37.0300 -95.1740 181° South 449 517 38,000  Level FlightAware ADS-B
Fri 09:15:44 PM 36.9500 -95.1720 179° South 449 517 38,000  Level FlightAware ADS-B
Fri 09:16:25 PM 36.8670 -95.1450 165° South 448 516 38,000  Level FlightAware ADS-B
Fri 09:17:09 PM 36.7810 -95.1160 165° South 452 520 38,000  Level FlightAware ADS-B
Fri 09:17:41 PM 36.7240 -95.1060 172° South 454 522 38,000  Level FlightAware ADS-B
Fri 09:18:20 PM 36.6440 -95.1030 178° South 456 525 38,000 71 Level FlightAware ADS-B
Fri 09:19:05 PM 36.5330 -95.1030 180° South 456 525 38,100  Climbing FlightAware ADS-B
Fri 09:19:49 PM 36.4410 -95.1120 184° South 453 521 38,000 -73 Descending FlightAware ADS-B
Fri 09:20:27 PM 36.3620 -95.1200 185° South 452 520 38,000  Level FlightAware ADS-B
Fri 09:21:13 PM 36.2660 -95.1300 185° South 452 520 38,000  Level FlightAware ADS-B
Fri 09:21:57 PM 36.1820 -95.1360 183° South 453 521 38,000  Level FlightAware ADS-B
Fri 09:22:28 PM 36.1270 -95.1390 183° South 454 522 38,000  Level FlightAware ADS-B
Fri 09:23:11 PM 36.0270 -95.1460 183° South 456 525 38,000  Level FlightAware ADS-B
Fri 09:23:55 PM 35.9250 -95.1520 183° South 458 527 38,000  Level FlightAware ADS-B
Fri 09:24:27 PM 35.8560 -95.1570 183° South 459 528 38,000 79 Level FlightAware ADS-B
Fri 09:25:11 PM 35.7640 -95.1630 183° South 460 529 38,100 71 Climbing FlightAware ADS-B
Fri 09:25:51 PM 35.6800 -95.1690 183° South 459 528 38,100 -68 Level FlightAware ADS-B
Fri 09:26:39 PM 35.5770 -95.1760 183° South 457 526 38,000 -55 Descending FlightAware ADS-B
Fri 09:27:40 PM 35.4630 -95.1830 183° South 456 525 38,000  Level FlightAware ADS-B
Fri 09:28:20 PM 35.3910 -95.1880 183° South 456 525 38,000  Level FlightAware ADS-B
Fri 09:28:57 PM 35.3250 -95.1920 183° South 456 525 38,000  Level FlightAware ADS-B
Fri 09:29:45 PM 35.2390 -95.1970 183° South 456 525 38,000  Level FlightAware ADS-B
Fri 09:30:21 PM 35.1740 -95.2010 183° South 456 525 38,000  Level FlightAware ADS-B
Fri 09:31:09 PM 35.0880 -95.2070 183° South 456 525 38,000  Level FlightAware ADS-B
Fri 09:31:39 PM 34.9490 -95.2170 183° South 456 525 38,000  Level FlightAware ADS-B
Fri 09:32:24 PM 34.8580 -95.2230 183° South 457 526 38,000  Level FlightAware ADS-B
Fri 09:33:16 PM 34.7470 -95.2300 183° South 458 527 38,000  Level FlightAware ADS-B
Fri 09:33:52 PM 34.6860 -95.2340 183° South 460 529 38,000  Level FlightAware ADS-B
Fri 09:35:08 PM 34.5490 -95.2420 183° South 460 529 38,000 -647 Level FlightAware ADS-B
Fri 09:35:34 PM 34.4570 -95.2760 197° South 462 532 36,900 -1,543 Descending FlightAware ADS-B
Fri 09:36:18 PM 34.3850 -95.3510 221° Southwest 464 534 36,200 -1,319 Descending FlightAware ADS-B
Fri 09:37:05 PM 34.3100 -95.4290 221° Southwest 463 533 34,900 -2,250 Descending FlightAware ADS-B
Fri 09:37:46 PM 34.2420 -95.5010 221° Southwest 468 539 32,900 -2,894 Descending FlightAware ADS-B
Fri 09:38:30 PM 34.1690 -95.5770 221° Southwest 473 544 30,800 -1,747 Descending FlightAware ADS-B
Fri 09:39:05 PM 34.1200 -95.6280 221° Southwest 472 543 30,600 -632 Descending FlightAware ADS-B
Fri 09:40:05 PM 34.0050 -95.7100 211° Southwest 443 510 29,800 -1,660 Descending FlightAware ADS-B
Fri 09:40:39 PM 33.9420 -95.7170 185° South 446 513 28,000 -3,440 Descending FlightAware ADS-B
Fri 09:41:20 PM 33.8560 -95.7260 185° South 436 502 25,500 -4,071 Descending FlightAware ADS-B
Fri 09:42:03 PM 33.7740 -95.7670 203° Southwest 429 494 22,300 -4,154 Descending FlightAware ADS-B
Fri 09:42:25 PM 33.7470 -95.8070 231° Southwest 422 486 21,000 -2,667 Descending FlightAware ADS-B
Fri 09:43:06 PM 33.7080 -95.8870 240° Southwest 417 480 19,500 -2,023 Descending FlightAware ADS-B
Fri 09:43:51 PM 33.6640 -95.9740 239° Southwest 408 470 18,100 -1,929 Descending FlightAware ADS-B
Fri 09:44:30 PM 33.6270 -96.0510 240° Southwest 399 459 16,800 -1,929 Descending FlightAware ADS-B
Fri 09:45:15 PM 33.5840 -96.1370 239° Southwest 394 453 15,400 -1,097 Descending FlightAware ADS-B
Fri 09:46:03 PM 33.5450 -96.2160 239° Southwest 394 453 15,100 -1,959 Descending FlightAware ADS-B
Fri 09:46:53 PM 33.4790 -96.3020 227° Southwest 383 441 12,200 -2,791 Descending FlightAware ADS-B
Fri 09:47:29 PM 33.4340 -96.3560 225° Southwest 371 427 11,100 -935 Descending FlightAware ADS-B
Fri 09:48:10 PM 33.3870 -96.4130 225° Southwest 325 374 11,000 -585 Descending FlightAware ADS-B
Fri 09:48:51 PM 33.3460 -96.4610 224° Southwest 309 356 10,300 -1,130 Descending FlightAware ADS-B
Fri 09:49:19 PM 33.3230 -96.5000 235° Southwest 302 348 9,700 -1,385 Descending FlightAware ADS-B
Fri 09:49:43 PM 33.3110 -96.5370 249° West 300 345 9,100 -1,543 Descending FlightAware ADS-B
Fri 09:49:54 PM 33.3050 -96.5550 248° West 300 345 8,800 -1,350 Descending FlightAware ADS-B
Fri 09:50:23 PM 33.2900 -96.5990 248° West 294 338 8,200 -1,286 Descending FlightAware ADS-B
Fri 09:50:50 PM 33.2760 -96.6390 247° West 288 331 7,600 -1,393 Descending FlightAware ADS-B
Fri 09:51:19 PM 33.2620 -96.6810 248° West 284 327 6,900 -1,358 Descending FlightAware ADS-B
Fri 09:51:43 PM 33.2500 -96.7170 248° West 281 323 6,400 -1,393 Descending FlightAware ADS-B
Fri 09:52:15 PM 33.2350 -96.7630 249° West 277 319 5,600 -1,345 Descending FlightAware ADS-B
Fri 09:52:41 PM 33.2240 -96.7950 248° West 274 315 5,100 -720 Descending FlightAware ADS-B
Fri 09:53:05 PM 33.2120 -96.8300 248° West 257 296 5,000 -321 Descending FlightAware ADS-B
Fri 09:53:37 PM 33.1980 -96.8710 248° West 239 275 4,800 -610 Descending FlightAware ADS-B
Fri 09:54:04 PM 33.1860 -96.9050 247° West 230 265 4,400 -960 Descending FlightAware ADS-B
Fri 09:54:27 PM 33.1780 -96.9310 250° West 229 264 4,000 -1,059 Descending FlightAware ADS-B
Fri 09:54:55 PM 33.1670 -96.9630 248° West 231 266 3,500 -1,091 Descending FlightAware ADS-B
Fri 09:55:22 PM 33.1500 -96.9910 234° Southwest 223 257 3,000 -536 Descending FlightAware ADS-B
Fri 09:55:51 PM 33.1230 -97.0070 206° Southwest 224 258 3,000  Level FlightAware ADS-B
Fri 09:56:15 PM 33.1030 -97.0180 205° Southwest 201 231 3,000  Level FlightAware ADS-B
Fri 09:56:31 PM 33.0890 -97.0240 200° South 183 211 3,000  Level FlightAware ADS-B
Fri 09:56:46 PM 33.0770 -97.0250 184° South 180 207 3,000  Level FlightAware ADS-B
Fri 09:57:13 PM 33.0600 -97.0250 180° South 178 205 3,000 -316 Level FlightAware ADS-B
Fri 09:57:43 PM 33.0300 -97.0250 180° South 177 204 2,700 -828 Descending FlightAware ADS-B
Fri 09:58:11 PM 33.0070 -97.0260 182° South 171 197 2,200 -857 Descending FlightAware ADS-B
Fri 09:58:39 PM 32.9870 -97.0260 180° South 136 157 1,900 -643 Descending FlightAware ADS-B
Fri 09:59:07 PM 32.9710 -97.0260 180° South 125 144 1,600 -629 Descending FlightAware ADS-B
Fri 10:00:24 PM 32.9267 -97.0272 180° South 140 161 800 -623 Descending Fort Worth Center
Fri 10:02:00 PM 32.8968 -97.0380 203° Southwest  Level Estimated

Login

Don't have an account? Register now (free) for customized features, flight alerts, and more!